Time;durP1;ratioP1;P1;durP2;ratioP2;P2;SDS_P1;SDS_P2;PMS_P1;PMS_P2;Temp;Humidity;BMP_temperature;BMP_pressure;BME280_temperature;BME280_humidity;BME280_pressure;Samples;Min_cycle;Max_cycle;Signal;HPM_P1;HPM_P2
2021/08/31 00:01:35;;;;;;;30.20;6.78;;;15.90;99.90;;;;;;4867323;29;20226;-95
2021/08/31 00:04:01;;;;;;;26.08;6.53;;;15.90;99.90;;;;;;4861640;29;20049;-93
2021/08/31 00:06:27;;;;;;;24.77;5.28;;;16.00;99.90;;;;;;4863039;29;20056;-95
2021/08/31 00:08:52;;;;;;;28.52;6.32;;;16.00;99.90;;;;;;4862781;29;20093;-93
2021/08/31 00:11:19;;;;;;;26.23;5.80;;;16.10;99.90;;;;;;4892907;29;20049;-96
2021/08/31 00:13:45;;;;;;;23.83;5.43;;;16.10;99.90;;;;;;4862025;29;20057;-96
2021/08/31 00:16:11;;;;;;;23.15;5.78;;;16.10;99.90;;;;;;4861603;29;20341;-96
2021/08/31 00:18:37;;;;;;;27.13;6.05;;;16.10;99.90;;;;;;4863586;29;20075;-94
2021/08/31 00:21:02;;;;;;;23.25;5.70;;;16.10;99.90;;;;;;4892321;29;20045;-95
2021/08/31 00:23:28;;;;;;;19.20;5.38;;;16.20;99.90;;;;;;4861368;29;20414;-94
2021/08/31 00:25:54;;;;;;;19.45;5.22;;;16.10;99.90;;;;;;4846263;29;20099;-91
2021/08/31 00:28:20;;;;;;;20.80;5.70;;;16.00;99.90;;;;;;4861484;29;20139;-94
2021/08/31 00:30:46;;;;;;;24.55;5.57;;;16.00;99.90;;;;;;4861552;29;20052;-94
2021/08/31 00:33:12;;;;;;;26.20;5.88;;;16.00;99.90;;;;;;4860812;29;20127;-93
2021/08/31 00:35:38;;;;;;;36.50;6.22;;;16.00;99.90;;;;;;4861261;29;20084;-93
2021/08/31 00:38:03;;;;;;;25.20;5.63;;;16.00;99.90;;;;;;4860711;29;20044;-93
2021/08/31 00:40:29;;;;;;;16.45;4.85;;;16.00;99.90;;;;;;4861359;29;20045;-92
2021/08/31 00:42:55;;;;;;;21.85;5.53;;;15.90;99.90;;;;;;4876635;29;20085;-91
2021/08/31 00:45:21;;;;;;;20.95;5.03;;;16.00;99.90;;;;;;4864242;29;20053;-94
2021/08/31 00:47:46;;;;;;;29.15;5.50;;;16.00;99.90;;;;;;4865330;29;20064;-93
2021/08/31 00:50:16;;;;;;;22.90;6.68;;;15.90;99.90;;;;;;4879641;29;20057;-93
2021/08/31 00:52:42;;;;;;;17.85;5.07;;;15.90;99.90;;;;;;4864627;29;20061;-94
2021/08/31 00:55:09;;;;;;;17.77;4.63;;;16.00;99.90;;;;;;4863871;29;20049;-94
2021/08/31 00:57:36;;;;;;;22.90;5.53;;;16.00;99.90;;;;;;4864859;29;20061;-95
2021/08/31 01:00:08;;;;;;;26.52;5.25;;;16.00;99.90;;;;;;4864075;29;20041;-94
2021/08/31 01:02:34;;;;;;;27.00;5.85;;;16.00;99.90;;;;;;4864742;29;20402;-95
2021/08/31 01:04:59;;;;;;;19.55;5.78;;;16.00;99.90;;;;;;4864090;29;20053;-92
2021/08/31 01:07:26;;;;;;;28.35;5.55;;;16.00;99.90;;;;;;4895811;29;20049;-94
2021/08/31 01:09:52;;;;;;;27.13;5.70;;;16.10;99.90;;;;;;4864608;29;20053;-92
2021/08/31 01:12:19;;;;;;;20.02;5.10;;;16.10;99.90;;;;;;4863438;29;20053;-93
2021/08/31 01:14:46;;;;;;;24.50;5.65;;;16.10;99.90;;;;;;4864133;29;20475;-93
2021/08/31 01:17:12;;;;;;;14.15;4.72;;;16.20;99.90;;;;;;4863069;29;20081;-93
2021/08/31 01:19:38;;;;;;;20.70;5.40;;;16.20;99.90;;;;;;4879568;29;20049;-93
2021/08/31 01:22:10;;;;;;;23.90;5.60;;;16.20;99.90;;;;;;4863795;29;20067;-92
2021/08/31 01:24:47;;;;;;;19.70;5.28;;;16.20;99.90;;;;;;4848849;29;20088;-91
2021/08/31 01:27:13;;;;;;;22.48;5.30;;;16.20;99.90;;;;;;4863173;29;20060;-94
2021/08/31 01:29:39;;;;;;;25.23;5.72;;;16.20;99.90;;;;;;4879759;29;20084;-95
2021/08/31 01:32:06;;;;;;;19.67;5.05;;;16.20;99.90;;;;;;4879651;29;20135;-96
2021/08/31 01:34:32;;;;;;;19.85;4.95;;;16.30;99.90;;;;;;4865147;29;20136;-95
2021/08/31 01:36:59;;;;;;;22.02;5.70;;;16.30;99.90;;;;;;4864591;29;20064;-93
2021/08/31 01:39:25;;;;;;;17.92;5.22;;;16.20;99.90;;;;;;4863897;29;20049;-93
2021/08/31 01:41:51;;;;;;;19.13;5.97;;;16.20;99.90;;;;;;4864096;29;20053;-93
2021/08/31 01:44:18;;;;;;;17.55;5.40;;;16.20;99.90;;;;;;4863763;29;20562;-96
2021/08/31 01:46:44;;;;;;;22.67;5.90;;;16.10;99.90;;;;;;4895459;29;20410;-96
2021/08/31 01:49:09;;;;;;;19.42;5.32;;;16.10;99.90;;;;;;4863593;29;20055;-95
2021/08/31 01:51:35;;;;;;;30.42;6.55;;;16.10;99.90;;;;;;4879872;29;20088;-94
2021/08/31 01:54:02;;;;;;;21.27;5.82;;;16.10;99.90;;;;;;4864243;29;20048;-91
2021/08/31 01:56:28;;;;;;;25.05;5.60;;;16.10;99.90;;;;;;4863100;29;20049;-93
2021/08/31 01:58:54;;;;;;;29.30;5.90;;;16.00;99.90;;;;;;4863930;29;20064;-92
2021/08/31 02:01:19;;;;;;;19.08;5.47;;;16.00;99.90;;;;;;4894362;29;20090;-94
2021/08/31 02:03:45;;;;;;;23.00;6.63;;;16.00;99.90;;;;;;4895222;29;20439;-95
2021/08/31 02:06:11;;;;;;;29.05;6.68;;;16.10;99.90;;;;;;4878953;29;20524;-94
2021/08/31 02:08:36;;;;;;;26.83;5.88;;;16.00;99.90;;;;;;4863963;29;20642;-93
2021/08/31 02:11:02;;;;;;;19.90;5.97;;;16.00;99.90;;;;;;4863773;29;20045;-93
2021/08/31 02:13:28;;;;;;;31.40;7.00;;;16.00;99.90;;;;;;4863369;29;20084;-94
2021/08/31 02:15:53;;;;;;;23.40;6.40;;;16.00;99.90;;;;;;4863652;29;20052;-95
2021/08/31 02:18:19;;;;;;;22.98;6.53;;;16.00;99.90;;;;;;4894618;29;20053;-96
2021/08/31 02:20:45;;;;;;;26.92;6.22;;;16.00;99.90;;;;;;4863719;29;20398;-94
2021/08/31 02:23:11;;;;;;;28.55;6.07;;;16.00;99.90;;;;;;4863210;29;20055;-95
2021/08/31 02:25:36;;;;;;;27.83;6.05;;;15.90;99.90;;;;;;4878954;29;20053;-94
2021/08/31 02:28:02;;;;;;;18.08;5.47;;;15.90;99.90;;;;;;4878839;29;20053;-95
2021/08/31 02:30:28;;;;;;;23.45;6.35;;;16.00;99.90;;;;;;4894143;29;20615;-93
2021/08/31 02:32:59;;;;;;;16.20;5.28;;;16.00;99.90;;;;;;4894641;29;20085;-95
2021/08/31 02:35:26;;;;;;;22.77;5.90;;;16.00;99.90;;;;;;4847978;29;20125;-92
2021/08/31 02:37:52;;;;;;;25.77;5.97;;;16.00;99.90;;;;;;4894232;29;20451;-93
2021/08/31 02:40:17;;;;;;;28.33;5.93;;;16.10;99.90;;;;;;4862816;29;20049;-92
2021/08/31 02:42:43;;;;;;;22.20;5.85;;;16.10;99.90;;;;;;4862985;29;20516;-93
2021/08/31 02:45:10;;;;;;;23.33;5.90;;;16.10;99.90;;;;;;4862890;29;20048;-93
2021/08/31 02:47:36;;;;;;;31.25;7.20;;;16.20;99.90;;;;;;4847949;29;20557;-93
2021/08/31 02:50:03;;;;;;;20.80;6.20;;;16.10;99.90;;;;;;4847822;29;20045;-93
2021/08/31 02:52:28;;;;;;;31.15;7.35;;;16.10;99.90;;;;;;4862730;29;20132;-94
2021/08/31 02:54:54;;;;;;;20.77;6.55;;;16.20;99.90;;;;;;4894287;29;20443;-94
2021/08/31 02:57:20;;;;;;;38.25;6.90;;;16.10;99.90;;;;;;4878112;29;20049;-95
2021/08/31 02:59:45;;;;;;;28.58;6.60;;;16.20;99.90;;;;;;4894368;29;20088;-96
2021/08/31 03:02:11;;;;;;;26.15;6.50;;;16.20;99.90;;;;;;4862971;29;20076;-92
2021/08/31 03:04:39;;;;;;;35.97;6.50;;;16.20;99.90;;;;;;4863690;29;20512;-95
2021/08/31 03:07:07;;;;;;;22.63;6.80;;;16.20;99.90;;;;;;4862958;29;20045;-96
2021/08/31 03:09:33;;;;;;;31.15;6.95;;;16.20;99.90;;;;;;4896883;29;20049;-96
2021/08/31 03:11:59;;;;;;;30.30;7.10;;;16.10;99.90;;;;;;4866944;29;20048;-94
2021/08/31 03:14:25;;;;;;;27.65;6.57;;;16.10;99.90;;;;;;4894519;29;20049;-95
2021/08/31 03:16:51;;;;;;;27.65;8.20;;;16.10;99.90;;;;;;4894482;29;20060;-94
2021/08/31 03:19:20;;;;;;;30.15;6.38;;;16.10;99.90;;;;;;4864098;29;20085;-95
2021/08/31 03:21:47;;;;;;;35.80;7.63;;;16.00;99.90;;;;;;4896370;29;20059;-95
2021/08/31 03:24:13;;;;;;;28.10;7.10;;;16.00;99.90;;;;;;4893688;29;20059;-94
2021/08/31 03:26:39;;;;;;;34.85;7.82;;;16.00;99.90;;;;;;4877998;29;20085;-95
2021/08/31 03:29:05;;;;;;;28.05;7.55;;;16.00;99.90;;;;;;4894594;29;20402;-96
2021/08/31 03:31:30;;;;;;;30.77;7.85;;;15.90;99.90;;;;;;4847738;29;20128;-94
2021/08/31 03:33:56;;;;;;;32.15;7.40;;;15.90;99.90;;;;;;4894404;29;20554;-94
2021/08/31 03:36:22;;;;;;;25.67;8.05;;;15.90;99.90;;;;;;4862002;29;20045;-96
2021/08/31 03:38:47;;;;;;;29.58;7.93;;;15.90;99.90;;;;;;4862621;29;20077;-95
2021/08/31 03:41:13;;;;;;;27.52;7.82;;;15.80;99.90;;;;;;4879337;29;20104;-94
2021/08/31 03:43:39;;;;;;;28.75;8.80;;;15.80;99.90;;;;;;4898492;29;20065;-96
2021/08/31 03:46:05;;;;;;;32.38;8.02;;;15.80;99.90;;;;;;4866073;29;20045;-96
2021/08/31 03:48:31;;;;;;;33.38;9.65;;;15.80;99.90;;;;;;4864462;29;20135;-96
2021/08/31 03:50:56;;;;;;;34.20;8.52;;;15.80;99.90;;;;;;4863845;29;20486;-96
2021/08/31 03:53:22;;;;;;;33.20;8.50;;;15.70;99.90;;;;;;4893494;29;20136;-96
2021/08/31 03:55:47;;;;;;;38.25;9.32;;;15.70;99.90;;;;;;4863080;29;20097;-95
2021/08/31 03:58:13;;;;;;;34.47;8.63;;;15.70;99.90;;;;;;4862772;29;20510;-95
2021/08/31 04:00:39;;;;;;;42.33;10.23;;;15.70;99.90;;;;;;4878043;29;20483;-95
2021/08/31 04:03:04;;;;;;;26.85;8.63;;;15.70;99.90;;;;;;4862709;29;20055;-96
2021/08/31 04:05:30;;;;;;;28.55;8.80;;;15.70;99.90;;;;;;4894559;29;20091;-96
2021/08/31 04:07:56;;;;;;;37.50;10.63;;;15.60;99.90;;;;;;4895962;29;20514;-96
2021/08/31 04:10:22;;;;;;;35.42;9.32;;;15.60;99.90;;;;;;4864164;29;20049;-95
2021/08/31 04:12:48;;;;;;;33.05;10.43;;;15.60;99.90;;;;;;4863329;29;20064;-96
2021/08/31 04:15:14;;;;;;;36.58;10.52;;;15.50;99.90;;;;;;4863593;29;20053;-93
2021/08/31 04:17:40;;;;;;;31.10;9.73;;;15.50;99.90;;;;;;4866424;29;20049;-96
2021/08/31 04:20:06;;;;;;;26.55;9.40;;;15.50;99.90;;;;;;4867348;29;20059;-95
2021/08/31 04:22:33;;;;;;;27.05;9.02;;;15.50;99.90;;;;;;4869991;29;20057;-96
2021/08/31 04:24:59;;;;;;;23.33;8.95;;;15.50;99.90;;;;;;4871556;29;20398;-96
2021/08/31 04:27:25;;;;;;;30.23;8.23;;;15.50;99.90;;;;;;4870299;29;20063;-96
2021/08/31 04:29:51;;;;;;;23.40;8.88;;;15.50;99.90;;;;;;4884856;29;20530;-96
2021/08/31 04:32:17;;;;;;;25.70;8.57;;;15.50;99.90;;;;;;4883011;29;20053;-94
2021/08/31 04:34:43;;;;;;;27.15;8.68;;;15.50;99.90;;;;;;4870614;29;20045;-96
2021/08/31 04:37:09;;;;;;;22.88;7.65;;;15.50;99.90;;;;;;4903544;29;20053;-95
2021/08/31 04:39:34;;;;;;;26.40;8.90;;;15.50;99.90;;;;;;4889960;29;20085;-96
2021/08/31 04:44:36;;;;;;;23.27;9.30;;;15.50;99.90;;;;;;5212948;23;20116;-96
2021/08/31 04:47:02;;;;;;;27.83;8.18;;;15.40;99.90;;;;;;4887474;29;20048;-96
2021/08/31 04:49:27;;;;;;;22.85;8.05;;;15.50;99.90;;;;;;4884613;29;20080;-95
2021/08/31 04:51:53;;;;;;;28.83;8.38;;;15.50;99.90;;;;;;5062364;23;21176;-96
2021/08/31 04:54:19;;;;;;;46.33;8.75;;;15.50;99.90;;;;;;4870887;29;20136;-93
2021/08/31 04:56:45;;;;;;;24.60;7.68;;;15.60;99.90;;;;;;4863869;29;20045;-94
2021/08/31 04:59:11;;;;;;;26.17;7.75;;;15.70;99.90;;;;;;4864153;29;20049;-94
2021/08/31 05:01:38;;;;;;;34.40;8.10;;;15.70;99.90;;;;;;4874953;29;20049;-94
2021/08/31 05:04:04;;;;;;;31.90;8.30;;;15.70;99.90;;;;;;4849299;29;20455;-95
2021/08/31 05:06:30;;;;;;;36.45;8.45;;;15.80;99.90;;;;;;4864941;29;20379;-95
2021/08/31 05:08:56;;;;;;;27.70;6.85;;;15.90;99.90;;;;;;4864084;29;20089;-95
2021/08/31 05:11:22;;;;;;;22.10;6.55;;;16.00;99.90;;;;;;4864608;29;20061;-93
2021/08/31 05:13:47;;;;;;;29.52;6.97;;;16.00;99.90;;;;;;4833779;29;20048;-94
2021/08/31 05:16:16;;;;;;;37.40;7.38;;;16.10;99.90;;;;;;4849055;29;20051;-95
2021/08/31 05:18:42;;;;;;;28.75;8.02;;;16.10;99.90;;;;;;4864301;29;20040;-96
2021/08/31 05:21:08;;;;;;;20.45;5.78;;;16.00;99.90;;;;;;4865499;29;20053;-96
2021/08/31 05:23:34;;;;;;;16.98;6.53;;;16.00;99.90;;;;;;4828477;29;20056;-96
2021/08/31 05:26:00;;;;;;;21.83;6.05;;;16.00;99.90;;;;;;4898587;29;20120;-96
2021/08/31 05:28:26;;;;;;;17.20;6.38;;;15.90;99.90;;;;;;4851391;29;20076;-95
2021/08/31 05:30:52;;;;;;;20.83;5.57;;;16.00;99.90;;;;;;4852470;29;20060;-94
2021/08/31 05:33:18;;;;;;;19.52;6.40;;;15.90;99.90;;;;;;4847372;29;20136;-96
2021/08/31 05:35:44;;;;;;;20.83;5.50;;;15.90;99.90;;;;;;4842902;29;20045;-96
2021/08/31 05:38:09;;;;;;;19.50;5.82;;;15.90;99.90;;;;;;4864351;29;20073;-95
2021/08/31 05:40:35;;;;;;;16.63;5.82;;;15.90;99.90;;;;;;4850829;29;20052;-96
2021/08/31 05:43:01;;;;;;;19.55;5.85;;;15.90;99.90;;;;;;4849207;29;20125;-96
2021/08/31 05:45:28;;;;;;;20.50;6.18;;;15.90;99.90;;;;;;4848562;29;20105;-95
2021/08/31 05:47:54;;;;;;;24.15;7.35;;;15.90;99.90;;;;;;4865524;29;20049;-94
2021/08/31 05:50:20;;;;;;;23.85;6.60;;;16.00;99.90;;;;;;4833368;29;20049;-95
2021/08/31 05:52:46;;;;;;;18.67;5.82;;;16.00;99.90;;;;;;4847269;29;20697;-96
2021/08/31 05:55:12;;;;;;;23.38;5.78;;;15.90;99.90;;;;;;4849117;29;20067;-95
2021/08/31 05:57:39;;;;;;;20.05;7.63;;;16.00;99.90;;;;;;4854257;29;20052;-95
2021/08/31 06:00:07;;;;;;;18.98;5.97;;;16.00;99.90;;;;;;4852111;29;20086;-95
2021/08/31 06:02:33;;;;;;;22.08;5.57;;;16.00;99.90;;;;;;4847712;29;20551;-94
2021/08/31 06:04:59;;;;;;;29.15;6.47;;;16.00;99.90;;;;;;4848303;29;20057;-96
2021/08/31 06:07:26;;;;;;;16.88;5.28;;;16.00;99.90;;;;;;4847956;29;20060;-93
2021/08/31 06:09:52;;;;;;;13.48;4.63;;;16.00;99.90;;;;;;4834529;29;20057;-94
2021/08/31 06:12:19;;;;;;;19.65;5.25;;;16.00;99.90;;;;;;4878996;29;20052;-93
2021/08/31 06:14:44;;;;;;;13.65;4.47;;;16.10;99.90;;;;;;4893750;29;20053;-95
2021/08/31 06:17:10;;;;;;;19.35;5.38;;;16.10;99.90;;;;;;4863554;29;20049;-94
2021/08/31 06:19:37;;;;;;;17.55;5.40;;;16.10;99.90;;;;;;4846881;29;20057;-95
2021/08/31 06:22:04;;;;;;;14.55;4.45;;;16.20;99.90;;;;;;4873574;29;20045;-95
2021/08/31 06:24:30;;;;;;;16.90;3.88;;;16.20;99.90;;;;;;4865837;29;20049;-94
2021/08/31 06:26:56;;;;;;;15.60;4.70;;;16.20;99.90;;;;;;4836884;29;20050;-95
2021/08/31 06:29:21;;;;;;;13.07;4.80;;;16.30;99.90;;;;;;4847467;29;20074;-96
2021/08/31 06:31:47;;;;;;;15.10;4.20;;;16.30;99.90;;;;;;4837554;29;20080;-96
2021/08/31 06:36:44;;;;;;;11.20;3.95;;;16.30;99.90;;;;;;4839452;29;20070;-94
2021/08/31 06:39:10;;;;;;;15.90;3.97;;;16.40;99.90;;;;;;4815220;29;20058;-96
2021/08/31 06:41:38;;;;;;;13.93;4.40;;;16.40;99.90;;;;;;4802535;29;20058;-96
2021/08/31 06:44:04;;;;;;;22.02;5.50;;;16.50;99.90;;;;;;4819443;29;20050;-94
2021/08/31 06:46:30;;;;;;;12.32;4.45;;;16.50;99.90;;;;;;4816680;29;20083;-94
2021/08/31 06:48:56;;;;;;;16.23;5.18;;;16.50;99.90;;;;;;4811052;29;20127;-96
2021/08/31 06:51:22;;;;;;;12.65;3.30;;;16.60;99.90;;;;;;4820732;29;20046;-96
2021/08/31 06:53:48;;;;;;;14.00;4.28;;;16.60;99.90;;;;;;4814129;29;20054;-95
2021/08/31 06:56:13;;;;;;;18.98;4.32;;;16.60;99.90;;;;;;4817735;29;20053;-96
2021/08/31 06:58:39;;;;;;;16.80;4.35;;;16.60;99.90;;;;;;4815910;29;20065;-96
2021/08/31 07:01:05;;;;;;;13.40;4.13;;;16.70;99.90;;;;;;4819696;29;20134;-96
2021/08/31 07:03:31;;;;;;;17.77;4.60;;;16.70;99.90;;;;;;4811395;29;20065;-93
2021/08/31 07:05:57;;;;;;;11.82;4.18;;;16.60;99.90;;;;;;4823547;29;20054;-93
2021/08/31 07:08:22;;;;;;;16.45;4.82;;;16.50;99.90;;;;;;4811966;29;20052;-96
2021/08/31 07:10:48;;;;;;;18.95;5.18;;;16.50;99.90;;;;;;4809540;29;20112;-96
2021/08/31 07:13:15;;;;;;;16.45;4.65;;;16.50;99.90;;;;;;4820009;29;20468;-95
2021/08/31 07:15:41;;;;;;;11.57;3.38;;;16.50;99.90;;;;;;4788682;29;20125;-95
2021/08/31 07:18:07;;;;;;;8.30;4.13;;;16.50;99.90;;;;;;4817030;29;20507;-96
2021/08/31 07:20:33;;;;;;;10.95;5.05;;;16.60;99.90;;;;;;4809285;29;20050;-92
2021/08/31 07:22:58;;;;;;;19.45;5.28;;;16.70;99.90;;;;;;4791690;29;20114;-96
2021/08/31 07:25:24;;;;;;;15.38;5.38;;;16.70;99.90;;;;;;4797481;29;20054;-94
2021/08/31 07:27:50;;;;;;;16.83;4.70;;;16.70;99.90;;;;;;4801103;29;20046;-95
2021/08/31 07:30:16;;;;;;;16.23;4.03;;;16.70;99.90;;;;;;4810916;29;20443;-95
2021/08/31 07:32:42;;;;;;;10.35;3.75;;;16.70;99.90;;;;;;4805902;29;20077;-95
2021/08/31 07:35:09;;;;;;;9.00;4.63;;;16.60;99.90;;;;;;4793709;29;20123;-94
2021/08/31 07:37:35;;;;;;;13.98;4.85;;;16.60;99.90;;;;;;4803292;29;20046;-95
2021/08/31 07:40:01;;;;;;;8.10;4.63;;;16.60;99.90;;;;;;4812823;29;20057;-94
2021/08/31 07:42:26;;;;;;;16.58;5.30;;;16.60;99.90;;;;;;4813068;29;20038;-93
2021/08/31 07:44:52;;;;;;;16.92;5.30;;;16.70;99.90;;;;;;4811576;29;20122;-91
2021/08/31 07:47:18;;;;;;;12.48;4.22;;;16.80;99.90;;;;;;4804047;29;20038;-96
2021/08/31 07:49:44;;;;;;;12.77;4.75;;;16.90;99.90;;;;;;4801127;29;20563;-94
2021/08/31 07:52:10;;;;;;;13.35;4.28;;;16.90;99.90;;;;;;4804126;29;20050;-93
2021/08/31 07:54:36;;;;;;;13.68;4.10;;;16.90;99.90;;;;;;4819118;29;20119;-95
2021/08/31 07:57:02;;;;;;;14.30;3.92;;;16.90;99.90;;;;;;4808396;29;20053;-93
2021/08/31 07:59:29;;;;;;;14.68;3.95;;;17.00;99.90;;;;;;4819127;29;20081;-94
2021/08/31 08:01:55;;;;;;;12.25;4.00;;;17.00;99.90;;;;;;4811391;29;20050;-93
2021/08/31 08:04:21;;;;;;;15.27;3.53;;;17.00;99.90;;;;;;4817616;29;20100;-94
2021/08/31 08:06:46;;;;;;;8.60;3.28;;;17.00;99.90;;;;;;4804625;29;20190;-94
2021/08/31 08:09:12;;;;;;;20.35;5.20;;;17.00;99.90;;;;;;4805549;29;20055;-93
2021/08/31 08:11:38;;;;;;;17.48;5.00;;;17.00;99.90;;;;;;4813261;29;20050;-94
2021/08/31 08:14:04;;;;;;;15.27;4.18;;;17.00;99.90;;;;;;4805394;29;20050;-94
2021/08/31 08:16:30;;;;;;;12.93;4.30;;;17.10;99.90;;;;;;4790579;29;20053;-94
2021/08/31 08:18:56;;;;;;;18.45;4.47;;;17.10;99.90;;;;;;4805697;29;20064;-94
2021/08/31 08:21:22;;;;;;;19.83;4.63;;;17.20;99.90;;;;;;4809569;29;20046;-93
2021/08/31 08:23:47;;;;;;;14.93;3.58;;;17.20;99.90;;;;;;4791268;29;20511;-93
2021/08/31 08:26:13;;;;;;;16.25;3.92;;;17.20;99.90;;;;;;4806492;29;20396;-92
2021/08/31 08:28:39;;;;;;;17.98;4.18;;;17.10;99.90;;;;;;4790397;29;20047;-93
2021/08/31 08:31:06;;;;;;;14.68;3.15;;;17.10;99.90;;;;;;4805886;29;20127;-95
2021/08/31 08:33:32;;;;;;;13.82;4.22;;;17.10;99.90;;;;;;4805769;29;20125;-93
2021/08/31 08:36:03;;;;;;;16.98;3.70;;;17.40;99.90;;;;;;4803982;29;20067;-93
2021/08/31 08:38:29;;;;;;;11.48;2.90;;;17.50;99.90;;;;;;4813215;29;20073;-94
2021/08/31 08:40:57;;;;;;;14.68;4.18;;;17.60;99.90;;;;;;4781547;29;20046;-94
2021/08/31 08:43:23;;;;;;;17.80;4.28;;;17.70;99.90;;;;;;4783141;29;20047;-94
2021/08/31 08:45:50;;;;;;;18.05;4.13;;;17.70;99.90;;;;;;4813223;29;20571;-93
2021/08/31 08:48:17;;;;;;;14.52;3.78;;;17.80;99.90;;;;;;4795423;29;20058;-93
2021/08/31 08:50:43;;;;;;;16.80;4.43;;;18.00;99.90;;;;;;4808934;29;20074;-92
2021/08/31 08:53:10;;;;;;;19.67;4.18;;;18.20;99.90;;;;;;4805075;29;20097;-90
2021/08/31 08:55:36;;;;;;;13.73;3.50;;;18.20;99.90;;;;;;4822363;29;20134;-88
2021/08/31 08:58:02;;;;;;;13.90;3.83;;;18.10;99.90;;;;;;4805770;29;20141;-90
2021/08/31 09:00:50;;;;;;;11.65;3.67;;;18.00;99.90;;;;;;4816789;29;20105;-90
2021/08/31 09:03:21;;;;;;;18.65;4.22;;;17.90;99.90;;;;;;4815982;29;20050;-90
2021/08/31 09:05:48;;;;;;;17.48;4.43;;;17.90;99.90;;;;;;4796539;29;20483;-95
2021/08/31 09:08:14;;;;;;;14.43;3.72;;;17.90;99.90;;;;;;4810448;29;20046;-90
2021/08/31 09:10:45;;;;;;;15.57;4.00;;;17.90;99.90;;;;;;4807210;29;20064;-90
2021/08/31 09:13:11;;;;;;;15.98;4.20;;;18.10;99.90;;;;;;4812733;29;20080;-89
2021/08/31 09:15:38;;;;;;;23.25;4.20;;;18.20;99.90;;;;;;4806073;29;20112;-90
2021/08/31 09:18:04;;;;;;;27.05;4.93;;;18.10;99.90;;;;;;4812247;29;20815;-92
2021/08/31 09:20:44;;;;;;;20.52;5.38;;;18.00;99.90;;;;;;4811589;29;20050;-92
2021/08/31 09:23:19;;;;;;;18.38;4.25;;;17.90;99.90;;;;;;4807573;29;20066;-91
2021/08/31 09:25:48;;;;;;;17.20;3.95;;;17.90;99.90;;;;;;4809715;29;20540;-92
2021/08/31 09:28:30;;;;;;;27.17;3.90;;;17.90;99.90;;;;;;4811288;29;20051;-91
2021/08/31 09:30:57;;;;;;;17.50;4.43;;;17.90;99.90;;;;;;4819911;29;20058;-91
2021/08/31 09:33:24;;;;;;;16.05;4.13;;;18.00;99.90;;;;;;4813360;29;20512;-93
2021/08/31 09:36:10;;;;;;;15.85;3.72;;;18.10;99.90;;;;;;4810807;29;20081;-91
2021/08/31 09:39:06;;;;;;;14.25;4.25;;;18.10;99.90;;;;;;4821959;29;20115;-94
2021/08/31 09:41:43;;;;;;;11.68;3.78;;;18.20;99.90;;;;;;4808739;29;20465;-91
2021/08/31 09:44:14;;;;;;;17.45;4.43;;;18.30;99.90;;;;;;4808980;29;20715;-93
2021/08/31 09:46:55;;;;;;;16.60;4.30;;;18.30;99.90;;;;;;4810018;29;20566;-91
2021/08/31 09:49:22;;;;;;;12.95;3.65;;;18.30;99.90;;;;;;4806059;29;20054;-93
2021/08/31 09:52:10;;;;;;;21.98;4.82;;;18.30;99.90;;;;;;4806936;29;20050;-91
2021/08/31 09:54:45;;;;;;;19.45;4.22;;;18.40;99.90;;;;;;4795471;29;20528;-92
2021/08/31 09:57:30;;;;;;;23.77;4.70;;;18.50;99.90;;;;;;4820205;29;20161;-92
2021/08/31 09:59:58;;;;;;;22.23;4.97;;;18.50;99.90;;;;;;4803520;29;20058;-95
2021/08/31 10:02:25;;;;;;;20.17;4.93;;;18.40;99.90;;;;;;4809576;29;20066;-93
2021/08/31 10:04:52;;;;;;;15.50;4.10;;;18.40;99.90;;;;;;4812251;29;20062;-91
2021/08/31 10:07:20;;;;;;;23.23;4.78;;;18.40;99.90;;;;;;4811635;29;20050;-96
2021/08/31 10:09:46;;;;;;;19.02;5.28;;;18.50;99.90;;;;;;4813810;29;20082;-96
2021/08/31 10:12:14;;;;;;;17.40;3.65;;;18.40;99.90;;;;;;4809140;29;20042;-94
2021/08/31 10:14:43;;;;;;;23.73;3.60;;;18.40;99.90;;;;;;4809251;29;21676;-96
2021/08/31 10:17:12;;;;;;;16.33;4.10;;;18.40;99.90;;;;;;4808709;29;20084;-93
2021/08/31 10:19:46;;;;;;;16.80;4.53;;;18.50;99.90;;;;;;4809654;29;20133;-95
2021/08/31 10:22:13;;;;;;;16.15;3.85;;;18.50;99.90;;;;;;4808328;29;20076;-92
2021/08/31 10:24:46;;;;;;;22.50;4.30;;;18.50;99.90;;;;;;4822959;29;20062;-95
2021/08/31 10:27:34;;;;;;;24.23;4.47;;;18.70;99.90;;;;;;4803807;29;20125;-90
2021/08/31 10:30:19;;;;;;;23.20;4.38;;;18.70;99.90;;;;;;4805540;29;20146;-91
2021/08/31 10:32:47;;;;;;;15.35;4.03;;;18.80;99.90;;;;;;4809855;29;20054;-89
2021/08/31 10:35:32;;;;;;;18.75;3.97;;;18.80;99.90;;;;;;4791610;29;20055;-95
2021/08/31 10:38:09;;;;;;;21.92;4.40;;;18.70;99.90;;;;;;4815415;29;20050;-94
2021/08/31 10:40:42;;;;;;;17.13;4.40;;;18.80;99.90;;;;;;4811506;29;20047;-96
2021/08/31 10:43:13;;;;;;;15.32;3.80;;;18.90;99.90;;;;;;4807578;29;20169;-92
2021/08/31 10:45:42;;;;;;;13.40;4.18;;;19.00;99.90;;;;;;4810060;29;20144;-96
2021/08/31 10:48:25;;;;;;;24.67;4.15;;;19.00;99.90;;;;;;4810977;29;20508;-96
2021/08/31 10:51:01;;;;;;;18.02;4.05;;;19.10;99.90;;;;;;4806154;29;20054;-96
2021/08/31 10:53:44;;;;;;;14.48;3.47;;;19.10;99.90;;;;;;4814531;29;20046;-94
2021/08/31 10:56:23;;;;;;;16.17;3.88;;;19.20;99.90;;;;;;4810893;29;20495;-95
2021/08/31 10:58:56;;;;;;;12.95;3.70;;;19.10;99.90;;;;;;4802223;29;20054;-95
2021/08/31 11:01:42;;;;;;;19.38;4.55;;;19.10;99.90;;;;;;4810433;29;20046;-96
2021/08/31 11:04:28;;;;;;;20.63;4.63;;;19.00;99.90;;;;;;4814541;29;20119;-94
2021/08/31 11:07:03;;;;;;;20.13;3.92;;;19.00;99.90;;;;;;4806278;29;20187;-96
2021/08/31 11:09:29;;;;;;;19.67;4.85;;;19.10;99.90;;;;;;4816496;29;20069;-94
2021/08/31 11:12:00;;;;;;;17.63;4.30;;;19.10;99.90;;;;;;4806939;29;20054;-96
2021/08/31 11:14:49;;;;;;;22.35;4.53;;;19.00;99.90;;;;;;4806060;29;20047;-96
2021/08/31 11:17:33;;;;;;;18.45;3.20;;;18.90;99.90;;;;;;4805323;29;20038;-96
2021/08/31 11:20:30;;;;;;;15.20;3.70;;;19.00;99.90;;;;;;4813264;29;20062;-91
2021/08/31 11:23:08;;;;;;;16.52;4.00;;;18.80;99.90;;;;;;4791501;29;20058;-95
2021/08/31 11:25:42;;;;;;;14.80;3.67;;;19.00;99.90;;;;;;4805882;29;20133;-94
2021/08/31 11:28:20;;;;;;;17.45;3.67;;;19.00;99.90;;;;;;4804545;29;20051;-94
2021/08/31 11:30:49;;;;;;;18.83;3.80;;;18.90;99.90;;;;;;4806638;29;20115;-95
2021/08/31 11:33:35;;;;;;;20.83;4.63;;;19.00;99.90;;;;;;4804838;29;20046;-96
2021/08/31 11:36:07;;;;;;;12.27;3.35;;;19.10;99.90;;;;;;4789442;29;20559;-92
2021/08/31 11:38:35;;;;;;;9.88;3.13;;;19.30;99.90;;;;;;4806682;29;20050;-96
2021/08/31 11:41:18;;;;;;;12.25;3.17;;;19.30;99.90;;;;;;4805967;29;20120;-92
2021/08/31 11:43:47;;;;;;;11.60;3.03;;;19.20;99.90;;;;;;4802448;29;20050;-93
2021/08/31 11:46:13;;;;;;;18.08;4.22;;;19.20;99.90;;;;;;4804986;29;20058;-95
2021/08/31 11:48:38;;;;;;;14.95;3.80;;;19.10;99.90;;;;;;4790183;29;20061;-96
2021/08/31 11:51:04;;;;;;;20.92;4.05;;;19.10;99.90;;;;;;4805308;29;20128;-91
2021/08/31 11:53:30;;;;;;;18.40;3.83;;;19.20;99.90;;;;;;4805442;29;20049;-96
2021/08/31 11:56:02;;;;;;;15.07;3.60;;;19.20;99.90;;;;;;4805096;29;20058;-93
2021/08/31 11:58:29;;;;;;;19.20;3.47;;;19.10;99.90;;;;;;4804988;29;20225;-94
2021/08/31 12:00:56;;;;;;;17.58;3.47;;;19.10;99.90;;;;;;4806058;29;20399;-96
2021/08/31 12:03:23;;;;;;;18.80;3.92;;;19.10;99.90;;;;;;4787765;29;20162;-95
2021/08/31 12:06:07;;;;;;;18.00;3.55;;;19.10;99.90;;;;;;4805993;29;20381;-94
2021/08/31 12:08:45;;;;;;;22.38;3.53;;;19.00;99.90;;;;;;4805033;29;20053;-96
2021/08/31 12:11:12;;;;;;;27.60;4.15;;;19.00;99.90;;;;;;4805301;29;20050;-96
2021/08/31 12:13:40;;;;;;;23.40;3.97;;;19.10;99.90;;;;;;4805605;29;20050;-96
2021/08/31 12:16:09;;;;;;;20.30;3.50;;;19.30;99.90;;;;;;4804095;29;20050;-91
2021/08/31 12:18:36;;;;;;;24.67;4.82;;;19.40;99.90;;;;;;4805182;29;20125;-96
2021/08/31 12:21:24;;;;;;;16.92;3.78;;;19.40;99.90;;;;;;4804427;29;20103;-96
2021/08/31 12:23:52;;;;;;;22.77;3.75;;;19.30;99.90;;;;;;4790280;29;20062;-93
2021/08/31 12:26:29;;;;;;;23.38;3.95;;;19.30;99.90;;;;;;4804326;29;20076;-95
2021/08/31 12:29:10;;;;;;;24.15;4.35;;;19.10;99.90;;;;;;4784391;29;20107;-95
2021/08/31 12:31:38;;;;;;;18.73;3.75;;;18.90;99.90;;;;;;4805663;29;20125;-95
2021/08/31 12:34:26;;;;;;;16.88;3.97;;;18.80;99.90;;;;;;4805108;29;20062;-96
2021/08/31 12:36:52;;;;;;;14.95;3.67;;;18.70;99.90;;;;;;4781013;29;20063;-95
2021/08/31 12:39:26;;;;;;;16.15;3.40;;;18.60;99.90;;;;;;4805477;29;20053;-96
2021/08/31 12:41:52;;;;;;;12.60;3.33;;;18.60;99.90;;;;;;4802209;29;20500;-93
2021/08/31 12:44:20;;;;;;;17.73;3.63;;;18.50;99.90;;;;;;4792684;29;20057;-96
2021/08/31 12:46:47;;;;;;;13.93;2.70;;;18.50;99.90;;;;;;4808773;29;20046;-96